Time;durP1;ratioP1;P1;durP2;ratioP2;P2;SDS_P1;SDS_P2;PMS_P1;PMS_P2;Temp;Humidity;BMP_temperature;BMP_pressure;BME280_temperature;BME280_humidity;BME280_pressure;Samples;Min_cycle;Max_cycle;Signal;HPM_P1;HPM_P2
2023/09/06 00:02:15;;;;;;;5.13;2.70;;;;;;;20.41;93.20;100897.44;8387702;28;20102;-88
2023/09/06 00:06:16;;;;;;;3.75;2.75;;;;;;;20.27;94.08;100895.59;8406101;28;20051;-88
2023/09/06 00:10:17;;;;;;;3.90;2.63;;;;;;;20.10;95.38;100883.94;8372760;28;20032;-89
2023/09/06 00:14:19;;;;;;;5.13;2.60;;;;;;;19.55;97.66;100860.88;8394075;28;20101;-88
2023/09/06 00:18:20;;;;;;;4.40;2.75;;;;;;;19.76;96.91;100897.44;8392643;28;20050;-86
2023/09/06 00:22:20;;;;;;;6.43;2.80;;;;;;;19.71;96.99;100888.09;8408393;28;20509;-88
2023/09/06 00:26:21;;;;;;;5.47;2.83;;;;;;;19.43;99.00;100883.28;8401965;28;20048;-87
2023/09/06 00:30:22;;;;;;;4.20;2.97;;;;;;;19.35;100.00;100883.38;8392878;28;20041;-87
2023/09/06 00:34:22;;;;;;;4.55;2.85;;;;;;;19.43;100.00;100882.44;8393354;28;20041;-87
2023/09/06 00:38:24;;;;;;;3.53;2.80;;;;;;;19.37;100.00;100889.50;8391907;28;20036;-88
2023/09/06 00:42:30;;;;;;;2.78;2.47;;;;;;;19.12;100.00;100882.56;8391334;28;20047;-88
2023/09/06 00:46:30;;;;;;;4.60;3.13;;;;;;;19.33;99.21;100901.03;8386884;28;20043;-88
2023/09/06 00:50:34;;;;;;;4.55;2.60;;;;;;;19.45;97.85;100883.94;8371308;28;20028;-89
2023/09/06 00:54:39;;;;;;;3.17;2.63;;;;;;;19.10;98.89;100862.72;8391122;28;20047;-88
2023/09/06 00:58:40;;;;;;;4.63;2.88;;;;;;;19.22;99.10;100905.06;8420827;28;20131;-90
2023/09/06 01:02:40;;;;;;;5.43;3.03;;;;;;;19.22;99.27;100904.22;8407482;28;20447;-88
2023/09/06 01:06:43;;;;;;;3.92;2.72;;;;;;;18.98;99.55;100888.88;8393038;28;20475;-89
2023/09/06 01:10:43;;;;;;;5.82;2.60;;;;;;;19.00;100.00;100911.44;8390026;28;20043;-89
2023/09/06 01:14:45;;;;;;;3.90;2.63;;;;;;;18.93;100.00;100882.22;8404097;28;20049;-88
2023/09/06 01:18:46;;;;;;;6.25;2.78;;;;;;;19.03;99.49;100897.38;8389922;28;20048;-88
2023/09/06 01:22:57;;;;;;;4.03;2.75;;;;;;;18.79;100.00;100894.84;8394602;28;20048;-89
2023/09/06 01:26:57;;;;;;;4.68;3.22;;;;;;;18.43;100.00;100874.63;8378350;28;20098;-88
2023/09/06 01:31:00;;;;;;;3.75;2.92;;;;;;;18.56;100.00;100880.31;8386697;28;20040;-90
2023/09/06 01:35:00;;;;;;;4.78;2.85;;;;;;;18.76;100.00;100902.59;8389102;28;20494;-88
2023/09/06 01:39:01;;;;;;;4.72;3.50;;;;;;;18.72;100.00;100896.63;8404157;28;20108;-88
2023/09/06 01:43:01;;;;;;;8.45;2.75;;;;;;;18.43;100.00;100858.19;8398755;28;20430;-88
2023/09/06 01:47:03;;;;;;;4.95;3.58;;;;;;;18.56;100.00;100896.75;8386561;28;20060;-88
2023/09/06 01:51:04;;;;;;;4.15;2.45;;;;;;;18.35;100.00;100881.97;8408172;28;20036;-88
2023/09/06 01:55:06;;;;;;;3.38;2.90;;;;;;;18.20;100.00;100873.69;8410841;28;20044;-89
2023/09/06 01:59:07;;;;;;;5.32;3.00;;;;;;;18.21;100.00;100864.44;8423917;28;20512;-89
2023/09/06 02:03:09;;;;;;;5.95;3.28;;;;;;;18.33;100.00;100884.91;8370944;28;20151;-89
2023/09/06 02:07:09;;;;;;;5.60;3.15;;;;;;;18.24;100.00;100905.16;8390247;28;20111;-88
2023/09/06 02:11:10;;;;;;;3.60;2.67;;;;;;;18.26;100.00;100900.34;8403664;28;20044;-89
2023/09/06 02:15:14;;;;;;;4.80;3.05;;;;;;;18.28;100.00;100887.34;8393819;28;20067;-88
2023/09/06 02:19:15;;;;;;;4.95;3.55;;;;;;;18.18;100.00;100894.09;8411182;28;20612;-88
2023/09/06 02:23:15;;;;;;;4.45;2.90;;;;;;;18.05;100.00;100891.09;8411772;28;20470;-87
2023/09/06 02:27:16;;;;;;;4.55;2.95;;;;;;;17.72;100.00;100849.38;8409076;28;20040;-88
2023/09/06 02:31:16;;;;;;;5.15;3.05;;;;;;;18.02;100.00;100899.66;8423834;28;20480;-88
2023/09/06 02:35:17;;;;;;;4.90;3.38;;;;;;;17.69;100.00;100882.56;8394387;28;20047;-87
2023/09/06 02:39:18;;;;;;;5.25;3.25;;;;;;;17.79;100.00;100913.25;8383917;28;20056;-88
2023/09/06 02:43:19;;;;;;;3.75;3.28;;;;;;;17.59;100.00;100873.69;8408413;28;20039;-89
2023/09/06 02:47:28;;;;;;;5.35;3.63;;;;;;;17.74;100.00;100902.00;8408687;28;20028;-88
2023/09/06 02:51:29;;;;;;;4.05;3.45;;;;;;;17.71;100.00;100891.41;8411976;28;20058;-88
2023/09/06 02:55:35;;;;;;;5.25;3.15;;;;;;;17.83;100.00;100911.88;8374458;28;20060;-88
2023/09/06 02:59:35;;;;;;;7.95;3.10;;;;;;;17.80;100.00;100894.94;8390795;28;20044;-88
2023/09/06 03:03:36;;;;;;;6.07;3.97;;;;;;;17.95;100.00;100918.66;8397272;28;20094;-88
2023/09/06 03:07:37;;;;;;;7.28;3.97;;;;;;;17.92;100.00;100923.63;8398352;28;20114;-88
2023/09/06 03:11:38;;;;;;;5.97;3.63;;;;;;;17.61;100.00;100904.44;8408177;28;20032;-88
2023/09/06 03:15:43;;;;;;;5.60;4.18;;;;;;;17.70;100.00;100916.19;8390700;28;20352;-87
2023/09/06 03:19:48;;;;;;;4.97;3.70;;;;;;;17.68;100.00;100927.31;8399247;28;20036;-87
2023/09/06 03:23:49;;;;;;;3.58;3.20;;;;;;;17.44;100.00;100897.31;8389869;28;20051;-88
2023/09/06 03:27:49;;;;;;;6.70;4.07;;;;;;;17.51;100.00;100931.16;8391989;28;20043;-89
2023/09/06 03:31:53;;;;;;;8.70;3.88;;;;;;;17.50;100.00;100941.22;8407607;28;20498;-86
2023/09/06 03:35:54;;;;;;;6.65;3.70;;;;;;;17.24;100.00;100912.38;8387971;28;20040;-87
2023/09/06 03:39:55;;;;;;;6.53;4.18;;;;;;;17.39;100.00;100921.56;8406998;28;20036;-88
2023/09/06 03:43:56;;;;;;;8.15;4.18;;;;;;;17.31;100.00;100913.38;8397435;28;20044;-87
2023/09/06 03:47:57;;;;;;;6.78;4.03;;;;;;;17.29;100.00;100909.94;8409859;28;20082;-88
2023/09/06 03:51:57;;;;;;;6.20;4.30;;;;;;;17.32;100.00;100926.88;8392009;28;20041;-88
2023/09/06 03:56:00;;;;;;;6.10;3.92;;;;;;;17.13;100.00;100913.59;8410486;28;20123;-89
2023/09/06 04:00:43;;;;;;;6.45;4.00;;;;;;;17.31;100.00;100929.78;8372648;28;20032;-88
2023/09/06 04:04:39;;;;;;;8.45;4.13;;;;;;;17.32;100.00;100947.88;8392644;28;20040;-90
2023/09/06 04:08:39;;;;;;;5.72;4.35;;;;;;;16.93;100.00;100936.81;8370403;28;20129;-90
2023/09/06 04:12:40;;;;;;;6.45;4.57;;;;;;;17.05;100.00;100945.53;8358670;28;20059;-89
2023/09/06 04:16:41;;;;;;;7.88;4.47;;;;;;;17.13;100.00;100953.72;8386562;28;20094;-89
2023/09/06 04:20:46;;;;;;;11.60;4.20;;;;;;;16.84;100.00;100943.28;8410103;28;20037;-89
2023/09/06 04:24:51;;;;;;;7.07;4.18;;;;;;;16.79;100.00;100956.63;8390943;28;20334;-88
2023/09/06 04:28:52;;;;;;;7.00;5.10;;;;;;;16.65;100.00;100937.34;8365222;28;20044;-88
2023/09/06 04:32:57;;;;;;;10.65;4.70;;;;;;;16.73;100.00;100950.97;8402629;28;20409;-89
2023/09/06 04:37:02;;;;;;;7.63;4.65;;;;;;;16.44;100.00;100942.44;8401922;28;20524;-89
2023/09/06 04:41:04;;;;;;;7.13;4.43;;;;;;;16.67;100.00;100957.13;8403493;28;20044;-88
2023/09/06 04:45:11;;;;;;;5.88;4.50;;;;;;;16.79;100.00;100966.69;8406963;28;20049;-89
2023/09/06 04:49:12;;;;;;;6.97;4.82;;;;;;;16.71;100.00;100958.50;8406182;28;20146;-89
2023/09/06 04:53:17;;;;;;;5.28;4.30;;;;;;;16.84;100.00;100967.88;8369785;28;20571;-89
2023/09/06 04:57:21;;;;;;;6.30;4.38;;;;;;;16.26;100.00;100892.56;8371806;28;20028;-89
2023/09/06 05:01:21;;;;;;;7.18;4.10;;;;;;;16.71;100.00;100961.25;8384088;28;20111;-89
2023/09/06 05:05:22;;;;;;;5.20;4.43;;;;;;;16.73;100.00;100948.25;8388106;28;20039;-88
2023/09/06 05:09:23;;;;;;;6.15;4.63;;;;;;;16.87;100.00;100958.50;8391465;28;20127;-90
2023/09/06 05:13:24;;;;;;;6.85;4.35;;;;;;;17.01;100.00;100960.53;8373260;28;20036;-88
2023/09/06 05:17:27;;;;;;;5.85;4.40;;;;;;;16.97;100.00;100942.78;8389975;28;20053;-86
2023/09/06 05:21:29;;;;;;;5.83;4.10;;;;;;;17.13;100.00;100970.09;8366273;28;20036;-89
2023/09/06 05:25:30;;;;;;;5.68;3.80;;;;;;;16.96;100.00;100930.19;8375372;28;20047;-88
2023/09/06 05:29:32;;;;;;;5.82;4.15;;;;;;;17.36;100.00;100977.41;8389908;28;20037;-87
2023/09/06 05:33:33;;;;;;;6.28;3.88;;;;;;;17.50;100.00;100974.03;8371711;28;20024;-85
2023/09/06 05:37:36;;;;;;;5.45;3.67;;;;;;;17.80;100.00;100986.09;8381429;28;20029;-85
2023/09/06 05:41:37;;;;;;;8.77;3.63;;;;;;;17.83;100.00;100966.59;8402136;28;20052;-86
2023/09/06 05:45:38;;;;;;;5.55;3.83;;;;;;;18.12;100.00;101007.88;8384552;28;20033;-86
2023/09/06 05:49:40;;;;;;;6.45;3.25;;;;;;;18.35;100.00;100995.09;8389351;28;20040;-86
2023/09/06 05:53:41;;;;;;;5.75;3.15;;;;;;;18.52;99.54;100988.53;8392601;28;20501;-85
2023/09/06 05:57:42;;;;;;;5.68;3.17;;;;;;;18.46;99.04;100972.84;8390873;28;20409;-86
2023/09/06 06:01:43;;;;;;;5.82;3.13;;;;;;;18.77;98.29;100998.31;8404694;28;20028;-85
2023/09/06 06:05:44;;;;;;;9.40;3.80;;;;;;;19.11;96.66;100996.00;8410709;28;20039;-86
2023/09/06 06:09:44;;;;;;;7.03;3.70;;;;;;;19.14;96.22;100968.22;8394864;28;20036;-85
2023/09/06 06:13:45;;;;;;;8.57;3.42;;;;;;;19.25;95.12;100965.00;8400749;28;20048;-85
2023/09/06 06:17:45;;;;;;;6.53;3.10;;;;;;;19.19;94.54;100941.06;8422812;28;20083;-85
2023/09/06 06:21:46;;;;;;;4.30;3.50;;;;;;;19.29;95.91;100960.91;8372985;28;20058;-85
2023/09/06 06:25:46;;;;;;;8.63;3.88;;;;;;;19.81;94.32;100992.91;8408748;28;20062;-86
2023/09/06 06:29:47;;;;;;;6.47;3.30;;;;;;;19.79;93.18;100982.13;8389670;28;20067;-85
2023/09/06 06:33:50;;;;;;;5.20;3.50;;;;;;;19.96;92.20;100991.91;8371810;28;20473;-86
2023/09/06 06:37:53;;;;;;;6.00;3.38;;;;;;;20.10;92.33;100976.47;8386110;28;20699;-86
2023/09/06 06:41:54;;;;;;;8.50;3.40;;;;;;;20.50;91.79;100989.69;8390894;28;20430;-86
2023/09/06 06:45:55;;;;;;;7.15;3.28;;;;;;;20.72;90.82;101006.03;8392444;28;20048;-85
2023/09/06 06:50:03;;;;;;;9.73;3.83;;;;;;;20.80;90.13;101002.31;8408740;28;20043;-85
2023/09/06 06:54:07;;;;;;;7.10;3.53;;;;;;;21.07;89.56;101009.78;8391787;28;20040;-85
2023/09/06 06:58:07;;;;;;;6.97;3.22;;;;;;;21.17;89.44;100977.34;8406372;28;20040;-86
2023/09/06 07:02:08;;;;;;;9.52;2.95;;;;;;;21.29;89.00;100981.25;8387329;28;20032;-85
2023/09/06 07:06:09;;;;;;;7.13;3.10;;;;;;;21.54;88.20;100978.91;8390746;28;20044;-86
2023/09/06 07:10:10;;;;;;;7.50;3.38;;;;;;;21.82;87.20;100972.38;8356353;28;20123;-86
2023/09/06 07:14:10;;;;;;;7.90;3.25;;;;;;;22.12;85.02;100971.06;8390125;28;20040;-88
2023/09/06 07:18:14;;;;;;;8.73;2.92;;;;;;;22.53;83.20;100980.16;8375302;28;20040;-86
2023/09/06 07:22:18;;;;;;;6.18;3.08;;;;;;;22.81;82.06;100980.03;8393197;28;20044;-86
2023/09/06 07:26:19;;;;;;;6.47;2.75;;;;;;;23.01;80.18;101008.50;8388302;28;20040;-86
2023/09/06 07:30:19;;;;;;;5.43;2.20;;;;;;;23.45;78.34;101006.03;8405744;28;20032;-87
2023/09/06 07:34:20;;;;;;;5.53;2.70;;;;;;;23.49;76.95;101017.50;8403086;28;20071;-87
2023/09/06 07:38:20;;;;;;;2.83;2.53;;;;;;;23.67;76.26;101003.91;8386523;28;20059;-87
2023/09/06 07:42:23;;;;;;;4.18;2.92;;;;;;;23.72;75.38;101012.41;8405546;28;20378;-86
2023/09/06 07:46:28;;;;;;;6.05;2.55;;;;;;;23.92;75.51;101024.28;8407267;28;20033;-87
2023/09/06 07:50:28;;;;;;;5.00;2.90;;;;;;;23.86;75.83;101009.41;8419343;28;20161;-87
2023/09/06 07:54:29;;;;;;;5.50;2.72;;;;;;;24.05;74.96;101008.56;8376579;28;20115;-91
2023/09/06 07:58:30;;;;;;;3.22;2.45;;;;;;;24.26;74.55;101015.72;8406001;28;20040;-86
2023/09/06 08:02:30;;;;;;;3.08;2.40;;;;;;;24.47;73.75;101013.53;8404168;28;20032;-88
2023/09/06 08:06:31;;;;;;;3.85;2.33;;;;;;;24.37;74.22;100960.59;8408152;28;20457;-87
2023/09/06 08:10:33;;;;;;;4.88;2.30;;;;;;;24.84;72.08;101004.44;8405700;28;20086;-87
2023/09/06 08:14:34;;;;;;;3.63;2.55;;;;;;;24.77;72.22;101013.84;8386966;28;20315;-88
2023/09/06 08:18:34;;;;;;;6.20;2.50;;;;;;;24.70;72.03;100949.44;8405582;28;20044;-87
2023/09/06 08:22:37;;;;;;;3.47;2.63;;;;;;;25.07;71.04;100967.91;8392476;28;20035;-87
2023/09/06 08:26:37;;;;;;;6.55;2.42;;;;;;;25.19;71.67;100999.34;8404270;28;20043;-88
2023/09/06 08:30:38;;;;;;;8.57;2.67;;;;;;;25.33;70.39;101009.25;8404526;28;20123;-87
2023/09/06 08:34:39;;;;;;;4.28;2.30;;;;;;;25.37;70.35;100993.88;8424381;28;20179;-87
2023/09/06 08:38:39;;;;;;;6.30;2.35;;;;;;;25.67;69.54;101021.78;8390896;28;20040;-87
2023/09/06 08:42:41;;;;;;;8.18;2.47;;;;;;;25.57;68.82;101021.41;8392445;28;20240;-87
2023/09/06 08:46:43;;;;;;;3.35;1.90;;;;;;;25.78;69.92;101001.63;8372105;28;20032;-88
2023/09/06 08:50:45;;;;;;;5.20;2.83;;;;;;;25.80;67.88;101003.09;8388540;28;20039;-88
2023/09/06 08:54:48;;;;;;;6.50;2.30;;;;;;;26.06;67.58;101011.19;8366635;28;20052;-87
2023/09/06 08:58:49;;;;;;;7.28;2.65;;;;;;;25.92;66.90;100998.50;8402176;28;20490;-87
2023/09/06 09:02:50;;;;;;;4.43;2.22;;;;;;;26.29;67.23;101014.09;8368380;28;20060;-87
2023/09/06 09:06:51;;;;;;;7.40;2.25;;;;;;;26.18;65.14;100986.31;8403654;28;20051;-86
2023/09/06 09:11:07;;;;;;;4.57;2.15;;;;;;;26.68;65.83;101033.09;8383183;28;20123;-86
2023/09/06 09:15:08;;;;;;;7.97;2.38;;;;;;;26.68;65.62;101021.13;8357433;28;20067;-86
2023/09/06 09:19:09;;;;;;;4.93;2.63;;;;;;;26.84;63.66;101014.97;8385895;28;20533;-87
2023/09/06 09:23:16;;;;;;;6.93;2.22;;;;;;;27.02;63.44;101027.94;8399509;28;20124;-87
2023/09/06 09:27:18;;;;;;;2.45;2.08;;;;;;;27.32;62.36;101020.47;8385494;28;20092;-87
2023/09/06 09:31:19;;;;;;;7.38;2.85;;;;;;;28.36;60.38;101015.84;8400526;28;20043;-88
2023/09/06 09:35:19;;;;;;;6.88;2.15;;;;;;;29.91;57.18;101018.03;8417549;28;20061;-87
2023/09/06 09:39:27;;;;;;;2.53;1.95;;;;;;;31.43;52.61;101014.22;8365436;28;20053;-88
2023/09/06 09:43:28;;;;;;;4.32;2.55;;;;;;;32.38;50.54;101001.00;8401404;28;20028;-87
2023/09/06 09:47:30;;;;;;;3.72;2.20;;;;;;;32.56;50.06;100991.31;8402251;28;20059;-87
2023/09/06 09:51:34;;;;;;;3.40;2.35;;;;;;;32.61;50.42;101017.38;8366252;28;20080;-87
2023/09/06 09:55:41;;;;;;;4.00;2.17;;;;;;;33.08;48.46;101006.09;8390788;28;20071;-88
2023/09/06 09:59:43;;;;;;;3.20;2.13;;;;;;;33.60;48.02;101015.97;8405290;28;20122;-90
2023/09/06 10:03:45;;;;;;;4.50;2.25;;;;;;;33.64;46.89;100989.03;8368473;28;20114;-87
2023/09/06 10:07:47;;;;;;;5.45;2.03;;;;;;;33.91;47.08;101002.81;8401689;28;20349;-87
2023/09/06 10:11:51;;;;;;;5.80;2.33;;;;;;;33.94;46.23;101011.50;8399154;28;20068;-87
2023/09/06 10:15:53;;;;;;;;;;;;;;;34.54;44.53;101020.94;8383425;28;20037;-88
2023/09/06 10:19:54;;;;;;;3.53;2.38;;;;;;;34.59;44.89;100976.81;8364379;28;20137;-88
2023/09/06 10:23:56;;;;;;;5.07;2.17;;;;;;;34.17;43.14;100972.72;8366546;28;20089;-87
2023/09/06 10:27:59;;;;;;;7.07;2.47;;;;;;;34.35;44.12;101000.19;8384945;28;20044;-88
2023/09/06 10:32:03;;;;;;;3.13;2.10;;;;;;;34.40;44.50;101003.03;8380683;28;20055;-88
2023/09/06 10:36:08;;;;;;;3.60;2.10;;;;;;;34.89;44.25;100998.34;8383064;28;20296;-88
2023/09/06 10:40:12;;;;;;;5.05;2.47;;;;;;;35.79;43.27;100994.91;8394417;28;20036;-87
2023/09/06 10:44:12;;;;;;;;;;;;;;;35.49;42.17;101012.03;8385379;28;20128;-87
2023/09/06 10:48:13;;;;;;;6.00;2.40;;;;;;;35.18;42.24;101004.91;8372044;28;19920;-89
2023/09/06 10:52:14;;;;;;;4.30;2.05;;;;;;;35.51;43.22;100982.50;8369128;28;20036;-87
2023/09/06 10:56:27;;;;;;;3.17;2.30;;;;;;;35.29;42.52;100990.50;8388179;28;20036;-87
2023/09/06 11:00:32;;;;;;;4.60;2.22;;;;;;;35.71;40.36;100987.09;8417661;28;20036;-89
2023/09/06 11:04:32;;;;;;;6.50;2.65;;;;;;;35.41;40.64;100990.16;8404403;28;20109;-87
2023/09/06 11:08:33;;;;;;;3.25;2.50;;;;;;;35.33;41.97;100976.69;8373634;28;20047;-88
2023/09/06 11:12:34;;;;;;;2.83;2.22;;;;;;;35.55;41.73;100982.72;8403935;28;20044;-88
2023/09/06 11:16:35;;;;;;;2.50;2.20;;;;;;;36.00;40.93;100968.25;8388711;28;20047;-88
2023/09/06 11:20:36;;;;;;;4.68;2.67;;;;;;;35.82;40.48;100971.81;8406917;28;20441;-87
2023/09/06 11:24:37;;;;;;;3.78;2.00;;;;;;;35.93;40.78;100942.44;8424928;28;20066;-87
2023/09/06 11:28:44;;;;;;;4.05;2.63;;;;;;;36.58;40.63;100974.66;8367836;28;20074;-88
2023/09/06 11:32:45;;;;;;;3.60;2.78;;;;;;;36.70;40.65;100960.94;8401968;28;20048;-88
2023/09/06 11:36:48;;;;;;;3.70;2.13;;;;;;;36.26;40.00;100938.69;8400524;28;20060;-87
2023/09/06 11:40:50;;;;;;;3.65;2.40;;;;;;;36.48;37.16;100963.50;8373042;28;20409;-89
2023/09/06 11:44:53;;;;;;;2.80;2.20;;;;;;;36.17;38.37;100928.38;8385576;28;20091;-87
2023/09/06 11:48:54;;;;;;;3.30;2.08;;;;;;;36.01;37.89;100924.88;8362288;28;20040;-88
2023/09/06 11:52:58;;;;;;;5.10;2.80;;;;;;;36.57;38.97;100945.63;8387847;28;20045;-87
2023/09/06 11:56:59;;;;;;;4.22;2.00;;;;;;;36.86;37.58;100918.19;8420137;28;20097;-88
2023/09/06 12:01:01;;;;;;;5.45;2.10;;;;;;;36.53;36.72;100918.38;8402826;28;20063;-89
2023/09/06 12:05:04;;;;;;;4.05;2.42;;;;;;;36.60;38.39;100959.13;8403780;28;20464;-89
2023/09/06 12:09:11;;;;;;;3.23;2.27;;;;;;;36.89;38.65;100940.13;8386315;28;20028;-86
2023/09/06 12:13:13;;;;;;;3.08;2.38;;;;;;;37.22;40.17;100930.63;8383826;28;20040;-87
2023/09/06 12:17:14;;;;;;;3.85;2.17;;;;;;;36.77;39.74;100944.56;8383747;28;20039;-88
2023/09/06 12:21:14;;;;;;;4.50;2.60;;;;;;;35.08;40.62;100937.50;8400891;28;20036;-88
2023/09/06 12:25:16;;;;;;;6.55;2.80;;;;;;;33.34;42.42;100921.72;8408746;28;20048;-88
2023/09/06 12:29:16;;;;;;;3.08;2.25;;;;;;;32.50;43.65;100926.00;8386101;28;20490;-87
2023/09/06 12:33:18;;;;;;;3.67;2.38;;;;;;;32.15;46.03;100867.06;8384843;28;20406;-88
2023/09/06 12:37:18;;;;;;;5.40;2.60;;;;;;;32.36;46.83;100924.84;8366191;28;20143;-88
2023/09/06 12:41:19;;;;;;;2.65;2.13;;;;;;;31.87;46.19;100907.47;8383044;28;20048;-87
2023/09/06 12:45:30;;;;;;;3.97;2.85;;;;;;;31.78;46.12;100894.25;8377612;28;20040;-88
2023/09/06 12:49:30;;;;;;;3.38;2.40;;;;;;;31.09;47.25;100909.34;8383923;28;20120;-88
2023/09/06 12:53:32;;;;;;;6.90;3.13;;;;;;;31.33;47.19;100888.34;8397084;28;20036;-87
2023/09/06 12:57:34;;;;;;;5.07;2.72;;;;;;;31.38;47.05;100899.56;8402550;28;20063;-87
2023/09/06 13:01:34;;;;;;;3.72;2.80;;;;;;;31.17;46.50;100876.19;8415782;28;20239;-89
2023/09/06 13:05:38;;;;;;;2.80;2.30;;;;;;;31.20;45.45;100897.16;8392620;28;20411;-87
2023/09/06 13:09:39;;;;;;;3.03;2.47;;;;;;;31.35;46.60;100892.53;8409976;28;20087;-87
2023/09/06 13:13:42;;;;;;;2.63;2.20;;;;;;;31.14;45.33;100903.81;8387603;28;20032;-88
2023/09/06 13:17:42;;;;;;;5.95;2.45;;;;;;;31.14;44.88;100889.84;8388560;28;20354;-87
2023/09/06 13:21:44;;;;;;;2.78;2.10;;;;;;;31.39;45.30;100895.66;8391474;28;20537;-87
2023/09/06 13:25:45;;;;;;;4.18;2.75;;;;;;;31.20;45.40;100891.56;8401642;28;20110;-87
2023/09/06 13:29:45;;;;;;;6.85;2.40;;;;;;;31.11;44.61;100870.81;8370875;28;20101;-86
2023/09/06 13:33:46;;;;;;;2.70;2.10;;;;;;;31.17;46.39;100856.63;8403036;28;20486;-86
2023/09/06 13:37:46;;;;;;;5.75;2.45;;;;;;;31.44;47.05;100864.94;8380144;28;20537;-86
2023/09/06 13:41:48;;;;;;;3.72;2.63;;;;;;;31.35;45.98;100838.63;8384482;28;20064;-86
2023/09/06 13:45:48;;;;;;;7.00;2.38;;;;;;;31.16;48.37;100840.13;8393262;28;20159;-86
2023/09/06 13:49:50;;;;;;;3.25;2.65;;;;;;;31.11;48.88;100868.00;8390296;28;20147;-87
2023/09/06 13:53:52;;;;;;;5.60;2.60;;;;;;;31.01;48.67;100848.38;8398734;28;20044;-89
2023/09/06 13:57:53;;;;;;;5.13;3.65;;;;;;;31.03;46.96;100829.38;8425986;28;20036;-88
2023/09/06 14:01:57;;;;;;;6.75;2.42;;;;;;;31.08;48.11;100837.81;8374383;28;20106;-85
2023/09/06 14:05:58;;;;;;;2.97;2.50;;;;;;;31.26;46.76;100865.34;8423337;28;20040;-89
2023/09/06 14:09:58;;;;;;;4.43;2.25;;;;;;;31.22;46.20;100844.63;8382902;28;20536;-92
2023/09/06 14:13:59;;;;;;;5.70;3.28;;;;;;;31.12;47.13;100852.91;8374597;28;20097;-91
2023/09/06 14:18:00;;;;;;;3.20;2.53;;;;;;;30.83;47.57;100857.16;8398480;28;20096;-91
2023/09/06 14:22:00;;;;;;;6.20;2.72;;;;;;;31.10;46.99;100838.41;8398719;28;20039;-90
2023/09/06 14:26:01;;;;;;;3.78;2.58;;;;;;;31.22;45.92;100855.81;8368331;28;20094;-91
2023/09/06 14:30:01;;;;;;;4.15;2.92;;;;;;;30.88;47.02;100848.78;8388971;28;20036;-92
2023/09/06 14:34:07;;;;;;;4.77;2.80;;;;;;;30.79;47.63;100836.44;8412099;28;20048;-92
2023/09/06 14:38:21;;;;;;;2.97;2.67;;;;;;;30.77;47.54;100805.16;8404515;28;20275;-95
2023/09/06 14:42:22;;;;;;;6.03;3.20;;;;;;;30.67;47.91;100805.84;8398741;28;20162;-91
2023/09/06 14:46:23;;;;;;;5.20;3.08;;;;;;;30.88;48.46;100809.69;8358237;28;20037;-92
2023/09/06 14:50:24;;;;;;;4.78;2.92;;;;;;;30.70;47.01;100821.25;8411169;28;20250;-90
2023/09/06 14:54:24;;;;;;;5.28;2.35;;;;;;;30.85;48.84;100839.00;8395717;28;20114;-93
2023/09/06 14:58:25;;;;;;;4.57;2.63;;;;;;;30.75;49.27;100821.31;8377418;28;20039;-93
2023/09/06 15:02:26;;;;;;;4.03;2.60;;;;;;;30.61;48.86;100806.09;8384990;28;20040;-86
2023/09/06 15:06:32;;;;;;;6.70;3.00;;;;;;;30.53;47.88;100789.81;8372762;28;20090;-86
2023/09/06 15:10:33;;;;;;;6.63;2.50;;;;;;;30.78;48.74;100809.59;8413501;28;20063;-89
2023/09/06 15:14:33;;;;;;;5.40;2.67;;;;;;;30.48;47.18;100781.38;8385003;28;20041;-92
2023/09/06 15:18:40;;;;;;;5.68;2.67;;;;;;;30.80;46.71;100807.41;8378944;28;20123;-92
2023/09/06 15:22:40;;;;;;;4.95;2.75;;;;;;;30.48;47.10;100792.53;8378400;28;20066;-93
2023/09/06 15:26:41;;;;;;;3.30;2.65;;;;;;;30.65;47.46;100830.41;8393825;28;20055;-91
2023/09/06 15:30:43;;;;;;;3.60;2.92;;;;;;;30.75;48.14;100843.66;8386413;28;20048;-91
2023/09/06 15:34:43;;;;;;;3.60;2.45;;;;;;;30.71;48.91;100820.13;8422224;28;20048;-91
2023/09/06 15:38:44;;;;;;;5.32;2.80;;;;;;;30.84;48.94;100842.06;8361460;28;20379;-92
2023/09/06 15:42:44;;;;;;;5.55;3.28;;;;;;;30.50;49.59;100807.06;8416061;28;20572;-92
2023/09/06 15:46:46;;;;;;;6.28;2.80;;;;;;;30.44;48.62;100831.31;8419485;28;20438;-92
2023/09/06 15:50:46;;;;;;;5.28;2.60;;;;;;;30.49;48.10;100844.50;8373572;28;20064;-94
2023/09/06 15:54:53;;;;;;;8.45;3.05;;;;;;;30.37;49.14;100825.94;8397314;28;20368;-92
2023/09/06 15:58:53;;;;;;;4.18;2.80;;;;;;;30.51;48.53;100831.09;8389563;28;20043;-90
2023/09/06 16:02:54;;;;;;;6.20;3.10;;;;;;;30.50;47.70;100796.75;8373761;28;20043;-92
2023/09/06 16:06:56;;;;;;;3.50;2.40;;;;;;;30.62;46.99;100830.09;8386172;28;20202;-90
2023/09/06 16:10:57;;;;;;;4.70;2.50;;;;;;;30.38;47.05;100819.22;8393352;28;20166;-91
2023/09/06 16:14:59;;;;;;;3.90;2.30;;;;;;;30.36;47.15;100790.75;8397079;28;20132;-93
2023/09/06 16:19:00;;;;;;;3.72;2.80;;;;;;;30.21;47.98;100793.41;8390749;28;20541;-91
2023/09/06 16:23:00;;;;;;;3.13;2.70;;;;;;;30.21;48.12;100798.97;8379909;28;20052;-92
2023/09/06 16:27:03;;;;;;;7.07;2.92;;;;;;;30.38;48.88;100824.81;8403215;28;20043;-92
2023/09/06 16:31:05;;;;;;;3.33;2.90;;;;;;;30.20;49.73;100810.41;8369163;28;20497;-92
2023/09/06 16:35:07;;;;;;;4.65;2.55;;;;;;;30.16;50.12;100832.34;8401853;28;20075;-93
2023/09/06 16:39:08;;;;;;;5.45;2.83;;;;;;;30.13;50.45;100830.09;8401418;28;20035;-91
2023/09/06 16:43:10;;;;;;;2.97;2.55;;;;;;;29.79;51.38;100800.66;8438891;27;20605;-91
2023/09/06 16:47:10;;;;;;;4.53;3.08;;;;;;;29.77;51.36;100802.88;8360782;28;20052;-90
2023/09/06 16:51:11;;;;;;;4.40;2.83;;;;;;;29.85;52.00;100827.50;8391582;28;20559;-88
2023/09/06 16:55:13;;;;;;;4.32;2.88;;;;;;;29.75;52.73;100827.38;8387798;28;20409;-89
2023/09/06 16:59:15;;;;;;;5.13;2.97;;;;;;;29.69;52.75;100817.25;8390633;28;20036;-89
2023/09/06 17:03:16;;;;;;;5.93;4.30;;;;;;;29.57;52.67;100805.34;8405899;28;20047;-90
2023/09/06 17:07:16;;;;;;;5.07;3.17;;;;;;;29.43;54.05;100794.84;8387550;28;20493;-91
2023/09/06 17:11:17;;;;;;;5.88;3.50;;;;;;;29.21;54.99;100797.56;8390330;28;20032;-92
2023/09/06 17:15:22;;;;;;;8.27;2.92;;;;;;;29.27;55.23;100824.41;8372232;28;20068;-91
2023/09/06 17:19:23;;;;;;;4.55;3.13;;;;;;;29.14;55.40;100818.34;8407742;28;20494;-91
2023/09/06 17:23:24;;;;;;;5.85;3.20;;;;;;;28.77;56.19;100790.16;8375045;28;20394;-90
2023/09/06 17:27:29;;;;;;;4.15;2.75;;;;;;;28.84;55.52;100793.59;8396638;28;20040;-91
2023/09/06 17:31:30;;;;;;;4.07;2.90;;;;;;;28.79;55.90;100793.53;8380622;28;20039;-90
2023/09/06 17:35:31;;;;;;;4.13;3.10;;;;;;;28.73;56.75;100822.38;8378995;28;20045;-90
2023/09/06 17:39:31;;;;;;;4.88;3.00;;;;;;;28.61;56.80;100816.03;8394248;28;20316;-90
2023/09/06 17:43:32;;;;;;;7.75;2.83;;;;;;;28.47;57.93;100815.50;8405717;28;20040;-90
2023/09/06 17:47:33;;;;;;;8.23;3.28;;;;;;;28.13;59.17;100798.94;8372994;28;20379;-90
2023/09/06 17:51:34;;;;;;;3.72;3.17;;;;;;;28.14;58.63;100811.75;8372146;28;20036;-90
2023/09/06 17:55:36;;;;;;;4.28;2.83;;;;;;;28.04;58.44;100814.31;8410124;28;20506;-90
2023/09/06 17:59:36;;;;;;;5.75;2.97;;;;;;;27.78;59.61;100806.53;8378424;28;20039;-89
2023/09/06 18:03:39;;;;;;;3.72;2.75;;;;;;;27.44;59.79;100766.59;8405688;28;20119;-90
2023/09/06 18:07:41;;;;;;;6.38;2.67;;;;;;;27.50;60.10;100792.59;8375793;28;20039;-90
2023/09/06 18:11:42;;;;;;;8.25;3.22;;;;;;;27.22;61.21;100787.75;8366136;28;20040;-89
2023/09/06 18:15:44;;;;;;;7.88;3.50;;;;;;;27.17;60.83;100809.00;8404458;28;20037;-85
2023/09/06 18:19:45;;;;;;;4.13;3.13;;;;;;;27.12;60.90;100811.66;8389931;28;20036;-86
2023/09/06 18:23:48;;;;;;;10.98;3.40;;;;;;;27.07;61.92;100826.25;8396468;28;20132;-84
2023/09/06 18:27:48;;;;;;;11.82;3.58;;;;;;;26.53;65.29;100830.09;8381794;28;20048;-85
2023/09/06 18:31:50;;;;;;;6.38;3.70;;;;;;;25.74;70.62;100823.91;8375465;28;20037;-85
2023/09/06 18:35:52;;;;;;;7.00;3.47;;;;;;;25.48;74.01;100838.09;8393526;28;20083;-85
2023/09/06 18:39:53;;;;;;;5.82;3.10;;;;;;;25.41;73.21;100850.31;8382614;28;20506;-84
2023/09/06 18:43:54;;;;;;;5.28;3.72;;;;;;;25.23;72.67;100848.31;8421575;28;20457;-85